sensor_id;sensor_type;location;lat;lon;timestamp;P1;durP1;ratioP1;P2;durP2;ratioP2
61200;SDS011;47065;52.898;6.992;2023-03-14T00:00:33;18.30;;;4.53;;
61200;SDS011;47065;52.898;6.992;2023-03-14T00:02:59;25.13;;;6.60;;
61200;SDS011;47065;52.898;6.992;2023-03-14T00:05:25;23.27;;;4.85;;
61200;SDS011;47065;52.898;6.992;2023-03-14T00:07:51;23.80;;;5.35;;
61200;SDS011;47065;52.898;6.992;2023-03-14T00:10:16;25.52;;;5.18;;
61200;SDS011;47065;52.898;6.992;2023-03-14T00:12:42;20.35;;;4.90;;
61200;SDS011;47065;52.898;6.992;2023-03-14T00:15:09;22.77;;;7.57;;
61200;SDS011;47065;52.898;6.992;2023-03-14T00:17:36;22.33;;;5.78;;
61200;SDS011;47065;52.898;6.992;2023-03-14T00:20:02;19.17;;;4.75;;
61200;SDS011;47065;52.898;6.992;2023-03-14T00:22:36;21.80;;;4.97;;
61200;SDS011;47065;52.898;6.992;2023-03-14T00:25:03;20.98;;;4.95;;
61200;SDS011;47065;52.898;6.992;2023-03-14T00:27:30;23.92;;;4.47;;
61200;SDS011;47065;52.898;6.992;2023-03-14T00:29:57;19.38;;;4.75;;
61200;SDS011;47065;52.898;6.992;2023-03-14T00:32:23;24.77;;;5.43;;
61200;SDS011;47065;52.898;6.992;2023-03-14T00:34:49;18.13;;;5.13;;
61200;SDS011;47065;52.898;6.992;2023-03-14T00:37:15;23.05;;;5.53;;
61200;SDS011;47065;52.898;6.992;2023-03-14T00:39:41;13.15;;;5.20;;
61200;SDS011;47065;52.898;6.992;2023-03-14T00:42:06;16.17;;;5.93;;
61200;SDS011;47065;52.898;6.992;2023-03-14T00:44:32;27.25;;;6.35;;
61200;SDS011;47065;52.898;6.992;2023-03-14T00:46:58;12.90;;;3.95;;
61200;SDS011;47065;52.898;6.992;2023-03-14T00:49:24;15.73;;;5.70;;
61200;SDS011;47065;52.898;6.992;2023-03-14T00:51:49;12.52;;;5.05;;
61200;SDS011;47065;52.898;6.992;2023-03-14T00:54:16;21.77;;;6.45;;
61200;SDS011;47065;52.898;6.992;2023-03-14T00:56:43;19.67;;;5.43;;
61200;SDS011;47065;52.898;6.992;2023-03-14T00:59:08;10.52;;;4.25;;
61200;SDS011;47065;52.898;6.992;2023-03-14T01:01:34;17.27;;;4.32;;
61200;SDS011;47065;52.898;6.992;2023-03-14T01:04:00;16.73;;;5.57;;
61200;SDS011;47065;52.898;6.992;2023-03-14T01:06:26;13.32;;;4.53;;
61200;SDS011;47065;52.898;6.992;2023-03-14T01:08:53;12.07;;;5.57;;
61200;SDS011;47065;52.898;6.992;2023-03-14T01:11:27;13.93;;;5.80;;
61200;SDS011;47065;52.898;6.992;2023-03-14T01:13:58;14.75;;;5.72;;
61200;SDS011;47065;52.898;6.992;2023-03-14T01:16:25;13.40;;;6.07;;
61200;SDS011;47065;52.898;6.992;2023-03-14T01:18:52;14.32;;;5.20;;
61200;SDS011;47065;52.898;6.992;2023-03-14T01:21:19;13.00;;;6.10;;
61200;SDS011;47065;52.898;6.992;2023-03-14T01:23:46;14.38;;;5.55;;
61200;SDS011;47065;52.898;6.992;2023-03-14T01:26:14;16.25;;;6.40;;
61200;SDS011;47065;52.898;6.992;2023-03-14T01:28:43;9.95;;;3.80;;
61200;SDS011;47065;52.898;6.992;2023-03-14T01:31:10;10.88;;;4.28;;
61200;SDS011;47065;52.898;6.992;2023-03-14T01:33:36;10.60;;;3.38;;
61200;SDS011;47065;52.898;6.992;2023-03-14T01:36:02;10.20;;;3.53;;
61200;SDS011;47065;52.898;6.992;2023-03-14T01:38:29;7.75;;;3.10;;
61200;SDS011;47065;52.898;6.992;2023-03-14T01:40:58;9.18;;;3.28;;
61200;SDS011;47065;52.898;6.992;2023-03-14T01:43:25;12.70;;;4.00;;
61200;SDS011;47065;52.898;6.992;2023-03-14T01:51:40;16.63;;;3.85;;
61200;SDS011;47065;52.898;6.992;2023-03-14T01:54:25;13.13;;;4.25;;
61200;SDS011;47065;52.898;6.992;2023-03-14T01:57:15;16.17;;;4.05;;
61200;SDS011;47065;52.898;6.992;2023-03-14T01:59:57;18.70;;;4.97;;
61200;SDS011;47065;52.898;6.992;2023-03-14T02:02:30;16.88;;;4.05;;
61200;SDS011;47065;52.898;6.992;2023-03-14T02:04:56;19.75;;;4.82;;
61200;SDS011;47065;52.898;6.992;2023-03-14T02:07:30;18.33;;;5.68;;
61200;SDS011;47065;52.898;6.992;2023-03-14T02:10:03;17.50;;;4.95;;
61200;SDS011;47065;52.898;6.992;2023-03-14T02:12:30;16.58;;;5.25;;
61200;SDS011;47065;52.898;6.992;2023-03-14T02:14:57;15.82;;;4.75;;
61200;SDS011;47065;52.898;6.992;2023-03-14T02:17:23;16.20;;;4.40;;
61200;SDS011;47065;52.898;6.992;2023-03-14T02:22:37;21.33;;;5.88;;
61200;SDS011;47065;52.898;6.992;2023-03-14T02:25:51;17.02;;;5.00;;
61200;SDS011;47065;52.898;6.992;2023-03-14T02:27:57;22.85;;;6.10;;
61200;SDS011;47065;52.898;6.992;2023-03-14T02:30:24;18.92;;;6.10;;
61200;SDS011;47065;52.898;6.992;2023-03-14T02:32:53;23.25;;;5.50;;
61200;SDS011;47065;52.898;6.992;2023-03-14T02:35:29;13.98;;;5.22;;
61200;SDS011;47065;52.898;6.992;2023-03-14T02:41:09;21.92;;;5.25;;
61200;SDS011;47065;52.898;6.992;2023-03-14T02:43:34;22.38;;;5.05;;
61200;SDS011;47065;52.898;6.992;2023-03-14T02:46:00;17.75;;;4.35;;
61200;SDS011;47065;52.898;6.992;2023-03-14T02:48:31;20.63;;;4.40;;
61200;SDS011;47065;52.898;6.992;2023-03-14T02:51:06;18.40;;;4.10;;
61200;SDS011;47065;52.898;6.992;2023-03-14T02:53:34;16.05;;;4.13;;
61200;SDS011;47065;52.898;6.992;2023-03-14T02:56:00;16.92;;;4.32;;
61200;SDS011;47065;52.898;6.992;2023-03-14T02:58:26;14.55;;;4.68;;
61200;SDS011;47065;52.898;6.992;2023-03-14T03:00:53;18.35;;;4.22;;
61200;SDS011;47065;52.898;6.992;2023-03-14T03:03:19;31.90;;;4.93;;
61200;SDS011;47065;52.898;6.992;2023-03-14T03:05:49;14.82;;;4.32;;
61200;SDS011;47065;52.898;6.992;2023-03-14T03:08:16;12.23;;;3.47;;
61200;SDS011;47065;52.898;6.992;2023-03-14T03:10:42;13.48;;;4.45;;
61200;SDS011;47065;52.898;6.992;2023-03-14T03:13:07;11.85;;;3.40;;
61200;SDS011;47065;52.898;6.992;2023-03-14T03:15:33;14.15;;;3.38;;
61200;SDS011;47065;52.898;6.992;2023-03-14T03:17:59;8.32;;;2.72;;
61200;SDS011;47065;52.898;6.992;2023-03-14T03:20:24;12.80;;;3.45;;
61200;SDS011;47065;52.898;6.992;2023-03-14T03:22:50;8.88;;;2.60;;
61200;SDS011;47065;52.898;6.992;2023-03-14T03:25:16;10.77;;;3.22;;
61200;SDS011;47065;52.898;6.992;2023-03-14T03:27:41;9.05;;;3.03;;
61200;SDS011;47065;52.898;6.992;2023-03-14T03:30:07;4.65;;;3.00;;
61200;SDS011;47065;52.898;6.992;2023-03-14T03:32:34;10.93;;;3.20;;
61200;SDS011;47065;52.898;6.992;2023-03-14T03:35:01;9.32;;;3.08;;
61200;SDS011;47065;52.898;6.992;2023-03-14T03:37:31;11.20;;;2.65;;
61200;SDS011;47065;52.898;6.992;2023-03-14T03:39:57;9.38;;;3.03;;
61200;SDS011;47065;52.898;6.992;2023-03-14T03:42:23;9.20;;;3.75;;
61200;SDS011;47065;52.898;6.992;2023-03-14T03:44:48;11.23;;;4.22;;
61200;SDS011;47065;52.898;6.992;2023-03-14T03:47:14;5.60;;;2.75;;
61200;SDS011;47065;52.898;6.992;2023-03-14T03:49:40;12.18;;;3.42;;
61200;SDS011;47065;52.898;6.992;2023-03-14T03:52:06;13.13;;;3.88;;
61200;SDS011;47065;52.898;6.992;2023-03-14T03:54:32;12.70;;;3.95;;
61200;SDS011;47065;52.898;6.992;2023-03-14T03:56:57;15.27;;;2.90;;
61200;SDS011;47065;52.898;6.992;2023-03-14T03:59:23;12.32;;;3.90;;
61200;SDS011;47065;52.898;6.992;2023-03-14T04:01:49;11.65;;;3.83;;
61200;SDS011;47065;52.898;6.992;2023-03-14T04:04:14;12.52;;;4.63;;
61200;SDS011;47065;52.898;6.992;2023-03-14T04:06:40;10.13;;;3.60;;
61200;SDS011;47065;52.898;6.992;2023-03-14T04:09:07;11.27;;;4.82;;
61200;SDS011;47065;52.898;6.992;2023-03-14T04:11:33;15.38;;;4.43;;
61200;SDS011;47065;52.898;6.992;2023-03-14T04:13:59;12.38;;;4.80;;
61200;SDS011;47065;52.898;6.992;2023-03-14T04:16:25;10.10;;;4.22;;
61200;SDS011;47065;52.898;6.992;2023-03-14T04:18:52;23.88;;;5.22;;
61200;SDS011;47065;52.898;6.992;2023-03-14T04:21:18;14.48;;;3.58;;
61200;SDS011;47065;52.898;6.992;2023-03-14T04:23:43;13.18;;;4.13;;
61200;SDS011;47065;52.898;6.992;2023-03-14T04:26:09;13.70;;;4.50;;
61200;SDS011;47065;52.898;6.992;2023-03-14T04:28:35;13.13;;;3.97;;
61200;SDS011;47065;52.898;6.992;2023-03-14T04:33:39;11.23;;;3.65;;
61200;SDS011;47065;52.898;6.992;2023-03-14T04:36:05;7.80;;;3.40;;
61200;SDS011;47065;52.898;6.992;2023-03-14T04:38:32;10.43;;;3.75;;
61200;SDS011;47065;52.898;6.992;2023-03-14T04:40:58;10.38;;;3.85;;
61200;SDS011;47065;52.898;6.992;2023-03-14T04:43:24;9.43;;;3.63;;
61200;SDS011;47065;52.898;6.992;2023-03-14T04:45:51;17.27;;;3.70;;
61200;SDS011;47065;52.898;6.992;2023-03-14T04:48:20;14.48;;;4.07;;
61200;SDS011;47065;52.898;6.992;2023-03-14T04:50:46;14.05;;;4.95;;
61200;SDS011;47065;52.898;6.992;2023-03-14T04:53:13;8.10;;;3.72;;
61200;SDS011;47065;52.898;6.992;2023-03-14T04:55:39;14.80;;;4.25;;
61200;SDS011;47065;52.898;6.992;2023-03-14T04:58:04;12.85;;;4.75;;
61200;SDS011;47065;52.898;6.992;2023-03-14T05:00:30;15.48;;;5.15;;
61200;SDS011;47065;52.898;6.992;2023-03-14T05:02:56;9.50;;;4.05;;
61200;SDS011;47065;52.898;6.992;2023-03-14T05:05:22;14.02;;;4.70;;
61200;SDS011;47065;52.898;6.992;2023-03-14T05:07:47;14.18;;;5.53;;
61200;SDS011;47065;52.898;6.992;2023-03-14T05:10:19;15.90;;;4.65;;
61200;SDS011;47065;52.898;6.992;2023-03-14T05:12:44;9.50;;;4.82;;
61200;SDS011;47065;52.898;6.992;2023-03-14T05:15:10;12.68;;;5.40;;
61200;SDS011;47065;52.898;6.992;2023-03-14T05:17:35;8.80;;;5.18;;
61200;SDS011;47065;52.898;6.992;2023-03-14T05:20:01;12.40;;;5.18;;
61200;SDS011;47065;52.898;6.992;2023-03-14T05:22:33;13.27;;;5.22;;
61200;SDS011;47065;52.898;6.992;2023-03-14T05:24:58;15.18;;;5.53;;
61200;SDS011;47065;52.898;6.992;2023-03-14T05:27:24;13.63;;;5.32;;
61200;SDS011;47065;52.898;6.992;2023-03-14T05:29:50;12.70;;;4.95;;
61200;SDS011;47065;52.898;6.992;2023-03-14T05:32:15;12.40;;;4.88;;
61200;SDS011;47065;52.898;6.992;2023-03-14T05:34:44;10.35;;;4.50;;
61200;SDS011;47065;52.898;6.992;2023-03-14T05:37:09;9.77;;;4.40;;
61200;SDS011;47065;52.898;6.992;2023-03-14T05:39:35;12.77;;;4.53;;
61200;SDS011;47065;52.898;6.992;2023-03-14T05:42:01;14.63;;;4.78;;
61200;SDS011;47065;52.898;6.992;2023-03-14T05:44:26;10.90;;;3.60;;
61200;SDS011;47065;52.898;6.992;2023-03-14T05:46:52;11.70;;;4.60;;
61200;SDS011;47065;52.898;6.992;2023-03-14T05:49:18;19.17;;;4.25;;
61200;SDS011;47065;52.898;6.992;2023-03-14T05:51:43;12.48;;;4.35;;
61200;SDS011;47065;52.898;6.992;2023-03-14T05:54:09;14.73;;;5.20;;
61200;SDS011;47065;52.898;6.992;2023-03-14T05:56:35;13.30;;;5.93;;
61200;SDS011;47065;52.898;6.992;2023-03-14T05:59:00;13.70;;;4.32;;
61200;SDS011;47065;52.898;6.992;2023-03-14T06:01:28;12.82;;;4.20;;
61200;SDS011;47065;52.898;6.992;2023-03-14T06:03:55;16.33;;;4.53;;
61200;SDS011;47065;52.898;6.992;2023-03-14T06:06:20;17.33;;;4.13;;
61200;SDS011;47065;52.898;6.992;2023-03-14T06:08:46;13.40;;;4.60;;
61200;SDS011;47065;52.898;6.992;2023-03-14T06:11:12;11.50;;;4.15;;
61200;SDS011;47065;52.898;6.992;2023-03-14T06:13:37;16.80;;;4.25;;
61200;SDS011;47065;52.898;6.992;2023-03-14T06:16:03;18.85;;;5.30;;
61200;SDS011;47065;52.898;6.992;2023-03-14T06:18:29;14.90;;;4.30;;
61200;SDS011;47065;52.898;6.992;2023-03-14T06:20:55;13.68;;;4.90;;
61200;SDS011;47065;52.898;6.992;2023-03-14T06:23:21;13.13;;;4.85;;
61200;SDS011;47065;52.898;6.992;2023-03-14T06:25:47;15.38;;;3.90;;
61200;SDS011;47065;52.898;6.992;2023-03-14T06:28:13;12.43;;;3.88;;
61200;SDS011;47065;52.898;6.992;2023-03-14T06:30:39;18.63;;;5.53;;
61200;SDS011;47065;52.898;6.992;2023-03-14T06:33:05;17.92;;;4.07;;
61200;SDS011;47065;52.898;6.992;2023-03-14T06:35:30;13.25;;;4.57;;
61200;SDS011;47065;52.898;6.992;2023-03-14T06:37:56;16.02;;;4.60;;
61200;SDS011;47065;52.898;6.992;2023-03-14T06:40:21;15.20;;;4.35;;
61200;SDS011;47065;52.898;6.992;2023-03-14T06:42:47;15.90;;;4.13;;
61200;SDS011;47065;52.898;6.992;2023-03-14T06:45:13;16.05;;;4.65;;
61200;SDS011;47065;52.898;6.992;2023-03-14T06:47:39;20.33;;;3.97;;
61200;SDS011;47065;52.898;6.992;2023-03-14T06:50:05;12.50;;;4.45;;
61200;SDS011;47065;52.898;6.992;2023-03-14T06:55:53;17.10;;;6.57;;
61200;SDS011;47065;52.898;6.992;2023-03-14T06:58:20;19.95;;;4.80;;
61200;SDS011;47065;52.898;6.992;2023-03-14T07:00:45;12.55;;;4.97;;
61200;SDS011;47065;52.898;6.992;2023-03-14T07:03:11;12.10;;;4.88;;
61200;SDS011;47065;52.898;6.992;2023-03-14T07:05:38;14.50;;;5.70;;
61200;SDS011;47065;52.898;6.992;2023-03-14T07:08:05;12.52;;;4.60;;
61200;SDS011;47065;52.898;6.992;2023-03-14T07:10:31;14.40;;;5.07;;
61200;SDS011;47065;52.898;6.992;2023-03-14T07:12:57;13.38;;;5.50;;
61200;SDS011;47065;52.898;6.992;2023-03-14T07:15:22;11.02;;;4.35;;
61200;SDS011;47065;52.898;6.992;2023-03-14T07:17:48;7.68;;;4.35;;
61200;SDS011;47065;52.898;6.992;2023-03-14T07:20:14;11.82;;;3.40;;
61200;SDS011;47065;52.898;6.992;2023-03-14T07:22:39;9.70;;;3.25;;
61200;SDS011;47065;52.898;6.992;2023-03-14T07:25:05;9.68;;;3.28;;
61200;SDS011;47065;52.898;6.992;2023-03-14T07:27:31;12.70;;;4.35;;
61200;SDS011;47065;52.898;6.992;2023-03-14T07:29:57;9.13;;;4.03;;
61200;SDS011;47065;52.898;6.992;2023-03-14T07:32:22;8.00;;;4.28;;
61200;SDS011;47065;52.898;6.992;2023-03-14T07:34:48;11.10;;;4.90;;
61200;SDS011;47065;52.898;6.992;2023-03-14T07:37:14;16.55;;;5.75;;
61200;SDS011;47065;52.898;6.992;2023-03-14T07:39:39;14.93;;;5.18;;
61200;SDS011;47065;52.898;6.992;2023-03-14T07:42:05;6.00;;;3.53;;
61200;SDS011;47065;52.898;6.992;2023-03-14T07:44:31;3.45;;;0.60;;
61200;SDS011;47065;52.898;6.992;2023-03-14T07:46:57;4.93;;;0.55;;
61200;SDS011;47065;52.898;6.992;2023-03-14T07:49:22;3.97;;;0.80;;
61200;SDS011;47065;52.898;6.992;2023-03-14T07:51:48;3.78;;;0.82;;
61200;SDS011;47065;52.898;6.992;2023-03-14T07:54:14;5.38;;;1.55;;
61200;SDS011;47065;52.898;6.992;2023-03-14T07:56:40;3.05;;;1.20;;
61200;SDS011;47065;52.898;6.992;2023-03-14T07:59:06;7.57;;;2.00;;
61200;SDS011;47065;52.898;6.992;2023-03-14T08:01:32;4.05;;;1.02;;
61200;SDS011;47065;52.898;6.992;2023-03-14T08:03:58;6.70;;;1.13;;
61200;SDS011;47065;52.898;6.992;2023-03-14T08:06:24;10.38;;;1.90;;
61200;SDS011;47065;52.898;6.992;2023-03-14T08:08:49;12.80;;;2.17;;
61200;SDS011;47065;52.898;6.992;2023-03-14T08:11:15;4.95;;;0.93;;
61200;SDS011;47065;52.898;6.992;2023-03-14T08:13:41;7.93;;;1.45;;
61200;SDS011;47065;52.898;6.992;2023-03-14T08:16:07;4.28;;;1.25;;
61200;SDS011;47065;52.898;6.992;2023-03-14T08:18:33;3.63;;;1.40;;
61200;SDS011;47065;52.898;6.992;2023-03-14T08:20:59;7.72;;;1.90;;
61200;SDS011;47065;52.898;6.992;2023-03-14T08:23:25;3.67;;;1.20;;
61200;SDS011;47065;52.898;6.992;2023-03-14T08:25:51;5.85;;;2.38;;
61200;SDS011;47065;52.898;6.992;2023-03-14T08:28:17;7.38;;;0.90;;
61200;SDS011;47065;52.898;6.992;2023-03-14T08:30:43;2.55;;;0.30;;
61200;SDS011;47065;52.898;6.992;2023-03-14T08:33:09;1.73;;;1.10;;
61200;SDS011;47065;52.898;6.992;2023-03-14T08:35:35;2.67;;;0.60;;
61200;SDS011;47065;52.898;6.992;2023-03-14T08:38:02;2.40;;;0.60;;
61200;SDS011;47065;52.898;6.992;2023-03-14T08:40:28;4.30;;;0.40;;
61200;SDS011;47065;52.898;6.992;2023-03-14T08:42:54;3.42;;;0.35;;
61200;SDS011;47065;52.898;6.992;2023-03-14T08:45:19;2.05;;;0.50;;
61200;SDS011;47065;52.898;6.992;2023-03-14T08:47:45;3.38;;;0.73;;
61200;SDS011;47065;52.898;6.992;2023-03-14T08:50:11;4.30;;;0.80;;
61200;SDS011;47065;52.898;6.992;2023-03-14T08:52:37;3.38;;;0.70;;
61200;SDS011;47065;52.898;6.992;2023-03-14T08:55:05;8.00;;;2.42;;
61200;SDS011;47065;52.898;6.992;2023-03-14T08:57:32;1.27;;;0.57;;
61200;SDS011;47065;52.898;6.992;2023-03-14T08:59:57;3.20;;;0.82;;
61200;SDS011;47065;52.898;6.992;2023-03-14T09:02:23;2.47;;;0.70;;
61200;SDS011;47065;52.898;6.992;2023-03-14T09:04:50;2.15;;;0.73;;
61200;SDS011;47065;52.898;6.992;2023-03-14T09:07:16;1.13;;;0.45;;
61200;SDS011;47065;52.898;6.992;2023-03-14T09:09:42;2.97;;;0.50;;
61200;SDS011;47065;52.898;6.992;2023-03-14T09:12:08;2.97;;;0.70;;
61200;SDS011;47065;52.898;6.992;2023-03-14T09:14:34;5.07;;;0.70;;
61200;SDS011;47065;52.898;6.992;2023-03-14T09:16:59;11.95;;;1.00;;
61200;SDS011;47065;52.898;6.992;2023-03-14T09:19:25;6.03;;;0.77;;
61200;SDS011;47065;52.898;6.992;2023-03-14T09:21:51;2.67;;;0.68;;
61200;SDS011;47065;52.898;6.992;2023-03-14T09:24:16;5.25;;;0.50;;
61200;SDS011;47065;52.898;6.992;2023-03-14T09:26:42;4.65;;;0.60;;
61200;SDS011;47065;52.898;6.992;2023-03-14T09:29:08;3.13;;;0.45;;
61200;SDS011;47065;52.898;6.992;2023-03-14T09:31:34;8.60;;;1.00;;
61200;SDS011;47065;52.898;6.992;2023-03-14T09:34:00;4.00;;;0.88;;
61200;SDS011;47065;52.898;6.992;2023-03-14T09:36:26;2.95;;;0.88;;
61200;SDS011;47065;52.898;6.992;2023-03-14T09:38:51;7.63;;;0.90;;
61200;SDS011;47065;52.898;6.992;2023-03-14T09:41:18;4.78;;;1.20;;
61200;SDS011;47065;52.898;6.992;2023-03-14T09:43:49;5.43;;;1.00;;
61200;SDS011;47065;52.898;6.992;2023-03-14T09:46:25;5.95;;;1.15;;
61200;SDS011;47065;52.898;6.992;2023-03-14T09:48:52;8.48;;;2.05;;
61200;SDS011;47065;52.898;6.992;2023-03-14T09:51:18;8.13;;;1.33;;
61200;SDS011;47065;52.898;6.992;2023-03-14T09:53:47;9.52;;;2.35;;
61200;SDS011;47065;52.898;6.992;2023-03-14T09:56:24;9.60;;;1.75;;
61200;SDS011;47065;52.898;6.992;2023-03-14T09:58:54;10.30;;;2.08;;
61200;SDS011;47065;52.898;6.992;2023-03-14T10:01:24;12.20;;;2.22;;
61200;SDS011;47065;52.898;6.992;2023-03-14T10:03:53;12.63;;;3.35;;
61200;SDS011;47065;52.898;6.992;2023-03-14T10:06:23;7.95;;;2.30;;
61200;SDS011;47065;52.898;6.992;2023-03-14T10:08:52;16.42;;;2.95;;
61200;SDS011;47065;52.898;6.992;2023-03-14T10:11:19;17.02;;;3.17;;
61200;SDS011;47065;52.898;6.992;2023-03-14T10:14:05;13.55;;;2.70;;
61200;SDS011;47065;52.898;6.992;2023-03-14T10:16:34;28.77;;;4.13;;
61200;SDS011;47065;52.898;6.992;2023-03-14T10:19:06;18.17;;;2.72;;
61200;SDS011;47065;52.898;6.992;2023-03-14T10:21:36;18.60;;;4.28;;
61200;SDS011;47065;52.898;6.992;2023-03-14T10:24:26;16.85;;;4.07;;
61200;SDS011;47065;52.898;6.992;2023-03-14T10:26:53;13.05;;;2.83;;
61200;SDS011;47065;52.898;6.992;2023-03-14T10:29:19;23.75;;;3.28;;
61200;SDS011;47065;52.898;6.992;2023-03-14T10:31:54;26.83;;;5.50;;
61200;SDS011;47065;52.898;6.992;2023-03-14T10:34:29;15.90;;;3.08;;
61200;SDS011;47065;52.898;6.992;2023-03-14T10:42:26;20.77;;;3.53;;
61200;SDS011;47065;52.898;6.992;2023-03-14T10:45:10;21.98;;;2.92;;
61200;SDS011;47065;52.898;6.992;2023-03-14T10:47:48;14.77;;;2.60;;
61200;SDS011;47065;52.898;6.992;2023-03-14T10:50:25;20.17;;;4.47;;
61200;SDS011;47065;52.898;6.992;2023-03-14T10:52:54;12.95;;;2.97;;
61200;SDS011;47065;52.898;6.992;2023-03-14T10:55:21;14.68;;;3.85;;
61200;SDS011;47065;52.898;6.992;2023-03-14T10:57:50;31.77;;;4.15;;
61200;SDS011;47065;52.898;6.992;2023-03-14T11:00:20;18.83;;;3.78;;
61200;SDS011;47065;52.898;6.992;2023-03-14T11:05:41;13.40;;;3.40;;
61200;SDS011;47065;52.898;6.992;2023-03-14T11:11:02;9.85;;;3.13;;
61200;SDS011;47065;52.898;6.992;2023-03-14T11:25:06;13.95;;;2.92;;
61200;SDS011;47065;52.898;6.992;2023-03-14T11:30:53;8.05;;;2.10;;
61200;SDS011;47065;52.898;6.992;2023-03-14T11:33:31;12.05;;;1.83;;
61200;SDS011;47065;52.898;6.992;2023-03-14T11:36:10;24.02;;;3.40;;
61200;SDS011;47065;52.898;6.992;2023-03-14T11:41:16;14.27;;;2.17;;
61200;SDS011;47065;52.898;6.992;2023-03-14T11:44:04;13.13;;;1.98;;
61200;SDS011;47065;52.898;6.992;2023-03-14T11:46:46;12.52;;;1.98;;
61200;SDS011;47065;52.898;6.992;2023-03-14T11:52:17;12.75;;;2.20;;
61200;SDS011;47065;52.898;6.992;2023-03-14T11:54:47;12.60;;;1.80;;
61200;SDS011;47065;52.898;6.992;2023-03-14T11:57:20;10.75;;;2.42;;
61200;SDS011;47065;52.898;6.992;2023-03-14T11:59:50;6.68;;;1.80;;
61200;SDS011;47065;52.898;6.992;2023-03-14T12:02:20;8.95;;;2.28;;
61200;SDS011;47065;52.898;6.992;2023-03-14T12:04:50;5.57;;;1.45;;
61200;SDS011;47065;52.898;6.992;2023-03-14T12:10:39;8.60;;;1.40;;
61200;SDS011;47065;52.898;6.992;2023-03-14T12:13:18;5.15;;;1.45;;
61200;SDS011;47065;52.898;6.992;2023-03-14T12:15:55;12.15;;;1.58;;
61200;SDS011;47065;52.898;6.992;2023-03-14T12:20:51;9.55;;;1.80;;
61200;SDS011;47065;52.898;6.992;2023-03-14T12:23:21;6.45;;;1.45;;
61200;SDS011;47065;52.898;6.992;2023-03-14T12:25:47;6.05;;;1.17;;
61200;SDS011;47065;52.898;6.992;2023-03-14T12:28:17;4.75;;;2.28;;
61200;SDS011;47065;52.898;6.992;2023-03-14T12:30:45;3.22;;;1.10;;
61200;SDS011;47065;52.898;6.992;2023-03-14T12:35:52;6.53;;;1.13;;
61200;SDS011;47065;52.898;6.992;2023-03-14T12:41:12;9.68;;;1.50;;
61200;SDS011;47065;52.898;6.992;2023-03-14T12:43:45;4.10;;;1.10;;
61200;SDS011;47065;52.898;6.992;2023-03-14T12:46:15;12.23;;;1.67;;
61200;SDS011;47065;52.898;6.992;2023-03-14T12:48:45;7.50;;;1.30;;
61200;SDS011;47065;52.898;6.992;2023-03-14T12:51:33;9.57;;;1.83;;
61200;SDS011;47065;52.898;6.992;2023-03-14T12:59:46;12.27;;;1.95;;
61200;SDS011;47065;52.898;6.992;2023-03-14T13:02:27;11.10;;;2.10;;
61200;SDS011;47065;52.898;6.992;2023-03-14T13:05:03;7.47;;;1.70;;
61200;SDS011;47065;52.898;6.992;2023-03-14T13:10:26;7.35;;;1.70;;
61200;SDS011;47065;52.898;6.992;2023-03-14T13:15:42;14.80;;;1.70;;
61200;SDS011;47065;52.898;6.992;2023-03-14T13:18:17;8.70;;;1.90;;
61200;SDS011;47065;52.898;6.992;2023-03-14T13:23:59;10.75;;;1.95;;
61200;SDS011;47065;52.898;6.992;2023-03-14T13:26:43;6.13;;;1.60;;
61200;SDS011;47065;52.898;6.992;2023-03-14T13:29:20;11.38;;;3.15;;
61200;SDS011;47065;52.898;6.992;2023-03-14T13:31:49;16.48;;;2.70;;
61200;SDS011;47065;52.898;6.992;2023-03-14T13:34:17;14.55;;;2.28;;
61200;SDS011;47065;52.898;6.992;2023-03-14T13:36:43;16.55;;;2.15;;
61200;SDS011;47065;52.898;6.992;2023-03-14T13:39:10;7.85;;;2.13;;
61200;SDS011;47065;52.898;6.992;2023-03-14T13:41:39;9.15;;;2.53;;
61200;SDS011;47065;52.898;6.992;2023-03-14T13:44:13;5.82;;;1.90;;
61200;SDS011;47065;52.898;6.992;2023-03-14T13:46:44;9.55;;;1.83;;
61200;SDS011;47065;52.898;6.992;2023-03-14T13:49:11;12.73;;;2.53;;
61200;SDS011;47065;52.898;6.992;2023-03-14T13:51:43;11.90;;;2.03;;
61200;SDS011;47065;52.898;6.992;2023-03-14T13:54:15;11.25;;;2.03;;
61200;SDS011;47065;52.898;6.992;2023-03-14T13:56:42;9.23;;;1.60;;
61200;SDS011;47065;52.898;6.992;2023-03-14T13:59:25;7.45;;;1.80;;
61200;SDS011;47065;52.898;6.992;2023-03-14T14:01:53;9.43;;;2.03;;
61200;SDS011;47065;52.898;6.992;2023-03-14T14:04:21;8.95;;;1.30;;
61200;SDS011;47065;52.898;6.992;2023-03-14T14:06:49;7.40;;;1.52;;
61200;SDS011;47065;52.898;6.992;2023-03-14T14:09:21;4.53;;;1.35;;
61200;SDS011;47065;52.898;6.992;2023-03-14T14:11:50;4.13;;;1.25;;
61200;SDS011;47065;52.898;6.992;2023-03-14T14:14:23;6.20;;;1.10;;
61200;SDS011;47065;52.898;6.992;2023-03-14T14:17:20;4.55;;;1.38;;
61200;SDS011;47065;52.898;6.992;2023-03-14T14:19:50;5.35;;;0.98;;
61200;SDS011;47065;52.898;6.992;2023-03-14T14:22:17;8.30;;;1.40;;
61200;SDS011;47065;52.898;6.992;2023-03-14T14:24:44;7.20;;;1.52;;
61200;SDS011;47065;52.898;6.992;2023-03-14T14:27:18;7.20;;;1.75;;
61200;SDS011;47065;52.898;6.992;2023-03-14T14:30:03;8.90;;;1.98;;
61200;SDS011;47065;52.898;6.992;2023-03-14T14:32:35;5.53;;;1.25;;
61200;SDS011;47065;52.898;6.992;2023-03-14T14:35:05;7.90;;;1.53;;
61200;SDS011;47065;52.898;6.992;2023-03-14T14:37:33;7.28;;;1.13;;
61200;SDS011;47065;52.898;6.992;2023-03-14T14:42:47;4.25;;;1.10;;
61200;SDS011;47065;52.898;6.992;2023-03-14T14:45:33;5.45;;;1.20;;
61200;SDS011;47065;52.898;6.992;2023-03-14T14:48:04;7.28;;;1.50;;
61200;SDS011;47065;52.898;6.992;2023-03-14T14:53:19;5.75;;;1.73;;
61200;SDS011;47065;52.898;6.992;2023-03-14T14:55:55;5.85;;;1.35;;
61200;SDS011;47065;52.898;6.992;2023-03-14T14:58:28;4.88;;;1.05;;
61200;SDS011;47065;52.898;6.992;2023-03-14T15:01:11;6.03;;;1.52;;
61200;SDS011;47065;52.898;6.992;2023-03-14T15:03:44;7.97;;;1.67;;
61200;SDS011;47065;52.898;6.992;2023-03-14T15:06:13;6.63;;;1.15;;
61200;SDS011;47065;52.898;6.992;2023-03-14T15:08:40;6.95;;;1.17;;
61200;SDS011;47065;52.898;6.992;2023-03-14T15:11:09;4.07;;;1.10;;
61200;SDS011;47065;52.898;6.992;2023-03-14T15:13:44;4.18;;;1.08;;
61200;SDS011;47065;52.898;6.992;2023-03-14T15:16:10;5.95;;;0.98;;
61200;SDS011;47065;52.898;6.992;2023-03-14T15:18:37;6.53;;;1.10;;
61200;SDS011;47065;52.898;6.992;2023-03-14T15:21:03;10.05;;;1.10;;
61200;SDS011;47065;52.898;6.992;2023-03-14T15:23:29;6.90;;;1.27;;
61200;SDS011;47065;52.898;6.992;2023-03-14T15:25:54;11.77;;;2.35;;
61200;SDS011;47065;52.898;6.992;2023-03-14T15:28:22;7.07;;;1.35;;
61200;SDS011;47065;52.898;6.992;2023-03-14T15:30:52;14.68;;;1.70;;
61200;SDS011;47065;52.898;6.992;2023-03-14T15:33:20;6.30;;;1.90;;
61200;SDS011;47065;52.898;6.992;2023-03-14T15:35:46;12.15;;;2.47;;
61200;SDS011;47065;52.898;6.992;2023-03-14T15:38:13;13.80;;;1.75;;
61200;SDS011;47065;52.898;6.992;2023-03-14T15:40:41;15.13;;;1.67;;
61200;SDS011;47065;52.898;6.992;2023-03-14T15:43:07;8.07;;;1.13;;
61200;SDS011;47065;52.898;6.992;2023-03-14T15:45:34;8.25;;;2.22;;
61200;SDS011;47065;52.898;6.992;2023-03-14T15:48:00;6.10;;;2.20;;
61200;SDS011;47065;52.898;6.992;2023-03-14T15:50:26;8.27;;;1.63;;
61200;SDS011;47065;52.898;6.992;2023-03-14T15:52:51;11.00;;;2.33;;
61200;SDS011;47065;52.898;6.992;2023-03-14T15:55:17;10.98;;;2.08;;
61200;SDS011;47065;52.898;6.992;2023-03-14T15:57:43;5.60;;;2.13;;
61200;SDS011;47065;52.898;6.992;2023-03-14T16:00:15;2.92;;;1.05;;
61200;SDS011;47065;52.898;6.992;2023-03-14T16:02:47;6.75;;;1.77;;
61200;SDS011;47065;52.898;6.992;2023-03-14T16:05:13;9.48;;;1.35;;
61200;SDS011;47065;52.898;6.992;2023-03-14T16:07:39;6.90;;;1.38;;